Terminal Aerodrome Forecast
Issued by NWS Cleveland, OH

Home | Current Version | Previous Version | Graphics & Text | Print | Product List | Glossary On
Versions: 1 2 3 4 5 6 7 8 9 10 11 12 13 14 15 16 17 18 19 20 21 22
000
FTUS41 KCLE 261100
TAFMFD
TAF
KMFD 261131Z 2612/2712 36012KT 2SM -SN BR OVC025
      TEMPO 2612/2614 1SM -SN VV009
     FM261400 36010KT 5SM -SN OVC018
     FM261800 34010KT P6SM SCT012 OVC020
     FM270200 32004KT P6SM BKN015=

USA.gov is the U.S. government's official web portal to all federal, state and local government web resources and services.